sensor_id;sensor_type;location;lat;lon;timestamp;temperature;humidity
46364;DHT22;32071;49.036;9.344;2023-11-19T00:01:26;7.70;99.90
46364;DHT22;32071;49.036;9.344;2023-11-19T00:03:52;7.70;99.90
46364;DHT22;32071;49.036;9.344;2023-11-19T00:06:18;7.80;99.90
46364;DHT22;32071;49.036;9.344;2023-11-19T00:08:44;7.80;99.90
46364;DHT22;32071;49.036;9.344;2023-11-19T00:11:10;7.80;99.90
46364;DHT22;32071;49.036;9.344;2023-11-19T00:13:36;7.80;99.90
46364;DHT22;32071;49.036;9.344;2023-11-19T00:16:02;7.80;99.90
46364;DHT22;32071;49.036;9.344;2023-11-19T00:18:29;7.80;99.90
46364;DHT22;32071;49.036;9.344;2023-11-19T00:20:55;7.80;99.90
46364;DHT22;32071;49.036;9.344;2023-11-19T00:23:20;7.90;99.90
46364;DHT22;32071;49.036;9.344;2023-11-19T00:25:46;7.90;99.90
46364;DHT22;32071;49.036;9.344;2023-11-19T00:28:13;8.00;99.90
46364;DHT22;32071;49.036;9.344;2023-11-19T00:30:38;7.90;99.90
46364;DHT22;32071;49.036;9.344;2023-11-19T00:33:06;8.00;99.90
46364;DHT22;32071;49.036;9.344;2023-11-19T00:35:31;8.00;99.90
46364;DHT22;32071;49.036;9.344;2023-11-19T00:37:58;8.00;99.90
46364;DHT22;32071;49.036;9.344;2023-11-19T00:40:23;8.00;99.90
46364;DHT22;32071;49.036;9.344;2023-11-19T00:42:49;8.00;99.90
46364;DHT22;32071;49.036;9.344;2023-11-19T00:45:15;8.00;99.90
46364;DHT22;32071;49.036;9.344;2023-11-19T00:47:40;8.00;99.90
46364;DHT22;32071;49.036;9.344;2023-11-19T00:50:07;8.10;99.90
46364;DHT22;32071;49.036;9.344;2023-11-19T00:52:36;8.10;99.90
46364;DHT22;32071;49.036;9.344;2023-11-19T00:55:03;8.00;99.90
46364;DHT22;32071;49.036;9.344;2023-11-19T00:57:30;8.10;99.90
46364;DHT22;32071;49.036;9.344;2023-11-19T00:59:55;8.10;99.90
46364;DHT22;32071;49.036;9.344;2023-11-19T01:02:21;8.10;99.90
46364;DHT22;32071;49.036;9.344;2023-11-19T01:04:46;8.10;99.90
46364;DHT22;32071;49.036;9.344;2023-11-19T01:07:12;8.10;99.90
46364;DHT22;32071;49.036;9.344;2023-11-19T01:09:38;8.10;99.90
46364;DHT22;32071;49.036;9.344;2023-11-19T01:12:04;8.10;99.90
46364;DHT22;32071;49.036;9.344;2023-11-19T01:14:30;8.20;99.90
46364;DHT22;32071;49.036;9.344;2023-11-19T01:16:56;8.20;99.90
46364;DHT22;32071;49.036;9.344;2023-11-19T01:19:22;8.20;99.90
46364;DHT22;32071;49.036;9.344;2023-11-19T01:21:49;8.20;99.90
46364;DHT22;32071;49.036;9.344;2023-11-19T01:24:14;8.30;99.90
46364;DHT22;32071;49.036;9.344;2023-11-19T01:26:41;8.30;99.90
46364;DHT22;32071;49.036;9.344;2023-11-19T01:29:11;8.30;99.90
46364;DHT22;32071;49.036;9.344;2023-11-19T01:31:42;8.30;99.90
46364;DHT22;32071;49.036;9.344;2023-11-19T01:34:08;8.30;99.90
46364;DHT22;32071;49.036;9.344;2023-11-19T01:36:35;8.40;99.90
46364;DHT22;32071;49.036;9.344;2023-11-19T01:39:01;8.40;99.90
46364;DHT22;32071;49.036;9.344;2023-11-19T01:41:27;8.40;99.90
46364;DHT22;32071;49.036;9.344;2023-11-19T01:43:53;8.40;99.90
46364;DHT22;32071;49.036;9.344;2023-11-19T01:46:19;8.40;99.90
46364;DHT22;32071;49.036;9.344;2023-11-19T01:48:45;8.40;99.90
46364;DHT22;32071;49.036;9.344;2023-11-19T01:51:12;8.40;99.90
46364;DHT22;32071;49.036;9.344;2023-11-19T01:53:39;8.40;99.90
46364;DHT22;32071;49.036;9.344;2023-11-19T01:56:07;8.40;99.90
46364;DHT22;32071;49.036;9.344;2023-11-19T01:58:35;8.40;99.90
46364;DHT22;32071;49.036;9.344;2023-11-19T02:01:01;8.40;99.90
46364;DHT22;32071;49.036;9.344;2023-11-19T02:03:31;8.40;99.90
46364;DHT22;32071;49.036;9.344;2023-11-19T02:05:58;8.40;99.90
46364;DHT22;32071;49.036;9.344;2023-11-19T02:08:24;8.40;99.90
46364;DHT22;32071;49.036;9.344;2023-11-19T02:10:49;8.40;99.90
46364;DHT22;32071;49.036;9.344;2023-11-19T02:13:15;8.40;99.90
46364;DHT22;32071;49.036;9.344;2023-11-19T02:15:41;8.40;99.90
46364;DHT22;32071;49.036;9.344;2023-11-19T02:18:39;8.40;99.90
46364;DHT22;32071;49.036;9.344;2023-11-19T02:21:05;8.40;99.90
46364;DHT22;32071;49.036;9.344;2023-11-19T02:23:31;8.40;99.90
46364;DHT22;32071;49.036;9.344;2023-11-19T02:26:02;8.40;99.90
46364;DHT22;32071;49.036;9.344;2023-11-19T02:28:28;8.40;99.90
46364;DHT22;32071;49.036;9.344;2023-11-19T02:30:53;8.40;99.90
46364;DHT22;32071;49.036;9.344;2023-11-19T02:33:19;8.40;99.90
46364;DHT22;32071;49.036;9.344;2023-11-19T02:35:44;8.40;99.90
46364;DHT22;32071;49.036;9.344;2023-11-19T02:38:10;8.40;99.90
46364;DHT22;32071;49.036;9.344;2023-11-19T02:40:36;8.50;99.90
46364;DHT22;32071;49.036;9.344;2023-11-19T02:43:02;8.50;99.90
46364;DHT22;32071;49.036;9.344;2023-11-19T02:45:30;8.50;99.90
46364;DHT22;32071;49.036;9.344;2023-11-19T02:47:56;8.50;99.90
46364;DHT22;32071;49.036;9.344;2023-11-19T02:50:22;8.50;99.90
46364;DHT22;32071;49.036;9.344;2023-11-19T02:52:52;8.50;99.90
46364;DHT22;32071;49.036;9.344;2023-11-19T02:55:18;8.50;99.90
46364;DHT22;32071;49.036;9.344;2023-11-19T02:57:45;8.50;99.90
46364;DHT22;32071;49.036;9.344;2023-11-19T03:00:23;8.60;99.90
46364;DHT22;32071;49.036;9.344;2023-11-19T03:02:50;8.60;99.90
46364;DHT22;32071;49.036;9.344;2023-11-19T03:05:25;8.60;99.90
46364;DHT22;32071;49.036;9.344;2023-11-19T03:07:52;8.60;99.90
46364;DHT22;32071;49.036;9.344;2023-11-19T03:10:17;8.60;99.90
46364;DHT22;32071;49.036;9.344;2023-11-19T03:12:44;8.60;99.90
46364;DHT22;32071;49.036;9.344;2023-11-19T03:15:11;8.60;99.90
46364;DHT22;32071;49.036;9.344;2023-11-19T03:17:38;8.70;99.90
46364;DHT22;32071;49.036;9.344;2023-11-19T03:20:09;8.70;99.90
46364;DHT22;32071;49.036;9.344;2023-11-19T03:22:36;8.70;99.90
46364;DHT22;32071;49.036;9.344;2023-11-19T03:25:02;8.70;99.90
46364;DHT22;32071;49.036;9.344;2023-11-19T03:27:28;8.70;99.90
46364;DHT22;32071;49.036;9.344;2023-11-19T03:29:53;8.70;99.90
46364;DHT22;32071;49.036;9.344;2023-11-19T03:32:19;8.70;99.90
46364;DHT22;32071;49.036;9.344;2023-11-19T03:34:45;8.70;99.90
46364;DHT22;32071;49.036;9.344;2023-11-19T03:37:11;8.70;99.90
46364;DHT22;32071;49.036;9.344;2023-11-19T03:39:36;8.70;99.90
46364;DHT22;32071;49.036;9.344;2023-11-19T03:42:02;8.80;99.90
46364;DHT22;32071;49.036;9.344;2023-11-19T03:44:28;8.90;99.90
46364;DHT22;32071;49.036;9.344;2023-11-19T03:46:54;8.90;99.90
46364;DHT22;32071;49.036;9.344;2023-11-19T03:49:20;8.90;99.90
46364;DHT22;32071;49.036;9.344;2023-11-19T03:51:45;8.90;99.90
46364;DHT22;32071;49.036;9.344;2023-11-19T03:54:11;8.90;99.90
46364;DHT22;32071;49.036;9.344;2023-11-19T03:56:37;8.90;99.90
46364;DHT22;32071;49.036;9.344;2023-11-19T03:59:03;8.90;99.90
46364;DHT22;32071;49.036;9.344;2023-11-19T04:01:28;8.90;99.90
46364;DHT22;32071;49.036;9.344;2023-11-19T04:03:54;8.90;99.90
46364;DHT22;32071;49.036;9.344;2023-11-19T04:06:21;8.90;99.90
46364;DHT22;32071;49.036;9.344;2023-11-19T04:08:47;8.90;99.90
46364;DHT22;32071;49.036;9.344;2023-11-19T04:11:12;8.90;99.90
46364;DHT22;32071;49.036;9.344;2023-11-19T04:13:38;8.90;99.90
46364;DHT22;32071;49.036;9.344;2023-11-19T04:16:04;9.00;99.90
46364;DHT22;32071;49.036;9.344;2023-11-19T04:18:30;9.00;99.90
46364;DHT22;32071;49.036;9.344;2023-11-19T04:20:57;9.00;99.90
46364;DHT22;32071;49.036;9.344;2023-11-19T04:23:23;9.00;99.90
46364;DHT22;32071;49.036;9.344;2023-11-19T04:25:50;9.10;99.90
46364;DHT22;32071;49.036;9.344;2023-11-19T04:28:15;9.10;99.90
46364;DHT22;32071;49.036;9.344;2023-11-19T04:30:41;9.10;99.90
46364;DHT22;32071;49.036;9.344;2023-11-19T04:33:07;9.10;99.90
46364;DHT22;32071;49.036;9.344;2023-11-19T04:35:32;9.10;99.90
46364;DHT22;32071;49.036;9.344;2023-11-19T04:37:58;9.10;99.90
46364;DHT22;32071;49.036;9.344;2023-11-19T04:40:23;9.20;99.90
46364;DHT22;32071;49.036;9.344;2023-11-19T04:42:49;9.20;99.90
46364;DHT22;32071;49.036;9.344;2023-11-19T04:45:15;9.20;99.90
46364;DHT22;32071;49.036;9.344;2023-11-19T04:47:42;9.20;99.90
46364;DHT22;32071;49.036;9.344;2023-11-19T04:50:08;9.20;99.90
46364;DHT22;32071;49.036;9.344;2023-11-19T04:52:38;9.20;99.90
46364;DHT22;32071;49.036;9.344;2023-11-19T04:55:05;9.30;99.90
46364;DHT22;32071;49.036;9.344;2023-11-19T04:57:31;9.30;99.90
46364;DHT22;32071;49.036;9.344;2023-11-19T04:59:58;9.30;99.90
46364;DHT22;32071;49.036;9.344;2023-11-19T05:02:23;9.30;99.90
46364;DHT22;32071;49.036;9.344;2023-11-19T05:04:49;9.30;99.90
46364;DHT22;32071;49.036;9.344;2023-11-19T05:07:15;9.40;99.90
46364;DHT22;32071;49.036;9.344;2023-11-19T05:09:40;9.40;99.90
46364;DHT22;32071;49.036;9.344;2023-11-19T05:12:06;9.40;99.90
46364;DHT22;32071;49.036;9.344;2023-11-19T05:14:35;9.40;99.90
46364;DHT22;32071;49.036;9.344;2023-11-19T05:17:01;9.40;99.90
46364;DHT22;32071;49.036;9.344;2023-11-19T05:19:26;9.40;99.90
46364;DHT22;32071;49.036;9.344;2023-11-19T05:21:52;9.40;99.90
46364;DHT22;32071;49.036;9.344;2023-11-19T05:24:17;9.40;99.90
46364;DHT22;32071;49.036;9.344;2023-11-19T05:26:43;9.50;99.90
46364;DHT22;32071;49.036;9.344;2023-11-19T05:29:09;9.60;99.90
46364;DHT22;32071;49.036;9.344;2023-11-19T05:31:34;9.60;99.90
46364;DHT22;32071;49.036;9.344;2023-11-19T05:34:00;9.70;99.90
46364;DHT22;32071;49.036;9.344;2023-11-19T05:36:25;9.70;99.90
46364;DHT22;32071;49.036;9.344;2023-11-19T05:38:51;9.80;99.90
46364;DHT22;32071;49.036;9.344;2023-11-19T05:41:17;9.80;99.90
46364;DHT22;32071;49.036;9.344;2023-11-19T05:43:42;9.80;99.90
46364;DHT22;32071;49.036;9.344;2023-11-19T05:46:08;9.90;99.90
46364;DHT22;32071;49.036;9.344;2023-11-19T05:48:34;9.90;99.90
46364;DHT22;32071;49.036;9.344;2023-11-19T05:51:00;10.00;99.90
46364;DHT22;32071;49.036;9.344;2023-11-19T05:53:25;10.00;99.90
46364;DHT22;32071;49.036;9.344;2023-11-19T05:55:51;10.00;99.90
46364;DHT22;32071;49.036;9.344;2023-11-19T05:58:24;10.00;99.90
46364;DHT22;32071;49.036;9.344;2023-11-19T06:00:51;10.00;99.90
46364;DHT22;32071;49.036;9.344;2023-11-19T06:03:18;10.10;99.90
46364;DHT22;32071;49.036;9.344;2023-11-19T06:05:45;10.10;99.90
46364;DHT22;32071;49.036;9.344;2023-11-19T06:08:11;10.10;99.90
46364;DHT22;32071;49.036;9.344;2023-11-19T06:10:39;10.10;99.90
46364;DHT22;32071;49.036;9.344;2023-11-19T06:13:05;10.10;99.90
46364;DHT22;32071;49.036;9.344;2023-11-19T06:15:30;10.10;99.90
46364;DHT22;32071;49.036;9.344;2023-11-19T06:17:58;10.20;99.90
46364;DHT22;32071;49.036;9.344;2023-11-19T06:20:26;10.20;99.90
46364;DHT22;32071;49.036;9.344;2023-11-19T06:22:54;10.30;99.90
46364;DHT22;32071;49.036;9.344;2023-11-19T06:25:20;10.20;99.90
46364;DHT22;32071;49.036;9.344;2023-11-19T06:27:45;10.20;99.90
46364;DHT22;32071;49.036;9.344;2023-11-19T06:30:11;10.20;99.90
46364;DHT22;32071;49.036;9.344;2023-11-19T06:32:37;10.30;99.90
46364;DHT22;32071;49.036;9.344;2023-11-19T06:35:04;10.30;99.90
46364;DHT22;32071;49.036;9.344;2023-11-19T06:37:30;10.30;99.90
46364;DHT22;32071;49.036;9.344;2023-11-19T06:39:56;10.30;99.90
46364;DHT22;32071;49.036;9.344;2023-11-19T06:42:21;10.30;99.90
46364;DHT22;32071;49.036;9.344;2023-11-19T06:44:47;10.30;99.90
46364;DHT22;32071;49.036;9.344;2023-11-19T06:47:14;10.30;99.90
46364;DHT22;32071;49.036;9.344;2023-11-19T06:49:39;10.40;99.90
46364;DHT22;32071;49.036;9.344;2023-11-19T06:52:05;10.40;99.90
46364;DHT22;32071;49.036;9.344;2023-11-19T06:54:32;10.40;99.90
46364;DHT22;32071;49.036;9.344;2023-11-19T06:56:57;10.40;99.90
46364;DHT22;32071;49.036;9.344;2023-11-19T06:59:23;10.40;99.90
46364;DHT22;32071;49.036;9.344;2023-11-19T07:01:49;10.40;99.90
46364;DHT22;32071;49.036;9.344;2023-11-19T07:04:14;10.50;99.90
46364;DHT22;32071;49.036;9.344;2023-11-19T07:06:40;10.40;99.90
46364;DHT22;32071;49.036;9.344;2023-11-19T07:09:08;10.50;99.90
46364;DHT22;32071;49.036;9.344;2023-11-19T07:11:41;10.50;99.90
46364;DHT22;32071;49.036;9.344;2023-11-19T07:14:07;10.50;99.90
46364;DHT22;32071;49.036;9.344;2023-11-19T07:16:34;10.50;99.90
46364;DHT22;32071;49.036;9.344;2023-11-19T07:19:03;10.60;99.90
46364;DHT22;32071;49.036;9.344;2023-11-19T07:21:30;10.60;99.90
46364;DHT22;32071;49.036;9.344;2023-11-19T07:23:56;10.60;99.90
46364;DHT22;32071;49.036;9.344;2023-11-19T07:26:22;10.60;99.90
46364;DHT22;32071;49.036;9.344;2023-11-19T07:28:48;10.60;99.90
46364;DHT22;32071;49.036;9.344;2023-11-19T07:31:14;10.60;99.90
46364;DHT22;32071;49.036;9.344;2023-11-19T07:33:40;10.60;99.90
46364;DHT22;32071;49.036;9.344;2023-11-19T07:36:08;10.60;99.90
46364;DHT22;32071;49.036;9.344;2023-11-19T07:38:34;10.60;99.90
46364;DHT22;32071;49.036;9.344;2023-11-19T07:40:59;10.60;99.90
46364;DHT22;32071;49.036;9.344;2023-11-19T07:43:25;10.70;99.90
46364;DHT22;32071;49.036;9.344;2023-11-19T07:45:51;10.70;99.90
46364;DHT22;32071;49.036;9.344;2023-11-19T07:48:16;10.70;99.90
46364;DHT22;32071;49.036;9.344;2023-11-19T07:50:43;10.80;99.90
46364;DHT22;32071;49.036;9.344;2023-11-19T07:53:09;10.80;99.90
46364;DHT22;32071;49.036;9.344;2023-11-19T07:55:34;10.80;99.90
46364;DHT22;32071;49.036;9.344;2023-11-19T07:58:00;10.80;99.90
46364;DHT22;32071;49.036;9.344;2023-11-19T08:00:26;10.80;99.90
46364;DHT22;32071;49.036;9.344;2023-11-19T08:02:52;10.90;99.90
46364;DHT22;32071;49.036;9.344;2023-11-19T08:05:17;10.90;99.90
46364;DHT22;32071;49.036;9.344;2023-11-19T08:07:43;10.90;99.90
46364;DHT22;32071;49.036;9.344;2023-11-19T08:10:08;10.90;99.90
46364;DHT22;32071;49.036;9.344;2023-11-19T08:12:37;10.90;99.90
46364;DHT22;32071;49.036;9.344;2023-11-19T08:15:03;11.00;99.90
46364;DHT22;32071;49.036;9.344;2023-11-19T08:17:30;10.90;99.90
46364;DHT22;32071;49.036;9.344;2023-11-19T08:19:56;11.00;99.90
46364;DHT22;32071;49.036;9.344;2023-11-19T08:22:21;11.00;99.90
46364;DHT22;32071;49.036;9.344;2023-11-19T08:24:48;11.00;99.90
46364;DHT22;32071;49.036;9.344;2023-11-19T08:27:14;11.10;99.90
46364;DHT22;32071;49.036;9.344;2023-11-19T08:29:39;11.10;99.90
46364;DHT22;32071;49.036;9.344;2023-11-19T08:32:06;11.20;99.90
46364;DHT22;32071;49.036;9.344;2023-11-19T08:34:32;11.30;99.90
46364;DHT22;32071;49.036;9.344;2023-11-19T08:36:57;11.40;99.90
46364;DHT22;32071;49.036;9.344;2023-11-19T08:39:23;11.50;99.90
46364;DHT22;32071;49.036;9.344;2023-11-19T08:41:49;11.50;99.90
46364;DHT22;32071;49.036;9.344;2023-11-19T08:44:16;11.60;99.90
46364;DHT22;32071;49.036;9.344;2023-11-19T08:46:50;11.60;99.90
46364;DHT22;32071;49.036;9.344;2023-11-19T08:49:16;11.60;99.90
46364;DHT22;32071;49.036;9.344;2023-11-19T08:51:42;11.70;99.90
46364;DHT22;32071;49.036;9.344;2023-11-19T08:54:08;11.60;99.90
46364;DHT22;32071;49.036;9.344;2023-11-19T08:56:34;11.60;99.90
46364;DHT22;32071;49.036;9.344;2023-11-19T08:59:01;11.60;99.90
46364;DHT22;32071;49.036;9.344;2023-11-19T09:01:26;11.60;99.90
46364;DHT22;32071;49.036;9.344;2023-11-19T09:03:52;11.60;99.90
46364;DHT22;32071;49.036;9.344;2023-11-19T09:06:17;11.60;99.90
46364;DHT22;32071;49.036;9.344;2023-11-19T09:08:43;11.60;99.90
46364;DHT22;32071;49.036;9.344;2023-11-19T09:11:09;11.70;99.90
46364;DHT22;32071;49.036;9.344;2023-11-19T09:13:35;11.80;99.90
46364;DHT22;32071;49.036;9.344;2023-11-19T09:16:01;11.90;99.90
46364;DHT22;32071;49.036;9.344;2023-11-19T09:18:30;12.10;99.90
46364;DHT22;32071;49.036;9.344;2023-11-19T09:20:55;12.10;99.90
46364;DHT22;32071;49.036;9.344;2023-11-19T09:23:21;12.10;99.90
46364;DHT22;32071;49.036;9.344;2023-11-19T09:25:46;12.10;99.90
46364;DHT22;32071;49.036;9.344;2023-11-19T09:28:12;12.20;99.90
46364;DHT22;32071;49.036;9.344;2023-11-19T09:30:39;12.20;99.90
46364;DHT22;32071;49.036;9.344;2023-11-19T09:33:05;12.20;99.90
46364;DHT22;32071;49.036;9.344;2023-11-19T09:35:31;12.30;99.90
46364;DHT22;32071;49.036;9.344;2023-11-19T09:37:56;12.30;99.90
46364;DHT22;32071;49.036;9.344;2023-11-19T09:40:22;12.40;99.90
46364;DHT22;32071;49.036;9.344;2023-11-19T09:42:48;12.40;99.90
46364;DHT22;32071;49.036;9.344;2023-11-19T09:45:15;12.50;99.90
46364;DHT22;32071;49.036;9.344;2023-11-19T09:47:44;12.60;99.90
46364;DHT22;32071;49.036;9.344;2023-11-19T09:50:16;12.70;99.90
46364;DHT22;32071;49.036;9.344;2023-11-19T09:52:42;12.80;99.90
46364;DHT22;32071;49.036;9.344;2023-11-19T09:55:08;12.90;99.90
46364;DHT22;32071;49.036;9.344;2023-11-19T09:57:34;13.00;99.90
46364;DHT22;32071;49.036;9.344;2023-11-19T10:00:03;13.00;99.90
46364;DHT22;32071;49.036;9.344;2023-11-19T10:02:31;12.90;99.90
46364;DHT22;32071;49.036;9.344;2023-11-19T10:04:59;13.00;99.90
46364;DHT22;32071;49.036;9.344;2023-11-19T10:07:25;13.20;99.90
46364;DHT22;32071;49.036;9.344;2023-11-19T10:09:51;13.20;99.90
46364;DHT22;32071;49.036;9.344;2023-11-19T10:12:16;13.50;99.90
46364;DHT22;32071;49.036;9.344;2023-11-19T10:14:43;13.70;99.90
46364;DHT22;32071;49.036;9.344;2023-11-19T10:17:09;13.80;99.90
46364;DHT22;32071;49.036;9.344;2023-11-19T10:19:35;14.00;99.90
46364;DHT22;32071;49.036;9.344;2023-11-19T10:22:04;14.10;99.90
46364;DHT22;32071;49.036;9.344;2023-11-19T10:24:34;14.00;99.90
46364;DHT22;32071;49.036;9.344;2023-11-19T10:27:00;13.90;99.90
46364;DHT22;32071;49.036;9.344;2023-11-19T10:29:29;13.70;99.90
46364;DHT22;32071;49.036;9.344;2023-11-19T10:31:56;13.60;99.90
46364;DHT22;32071;49.036;9.344;2023-11-19T10:34:26;13.60;99.90
46364;DHT22;32071;49.036;9.344;2023-11-19T10:36:51;13.80;99.90
46364;DHT22;32071;49.036;9.344;2023-11-19T10:39:18;13.80;99.90
46364;DHT22;32071;49.036;9.344;2023-11-19T10:41:43;13.80;99.90
46364;DHT22;32071;49.036;9.344;2023-11-19T10:44:09;13.90;99.90
46364;DHT22;32071;49.036;9.344;2023-11-19T10:46:39;14.00;99.90
46364;DHT22;32071;49.036;9.344;2023-11-19T10:49:09;14.10;99.90
46364;DHT22;32071;49.036;9.344;2023-11-19T10:51:36;14.20;99.90
46364;DHT22;32071;49.036;9.344;2023-11-19T10:54:05;14.10;99.90
46364;DHT22;32071;49.036;9.344;2023-11-19T10:56:32;14.10;99.90
46364;DHT22;32071;49.036;9.344;2023-11-19T10:59:02;14.10;99.90
46364;DHT22;32071;49.036;9.344;2023-11-19T11:01:39;14.10;99.90
46364;DHT22;32071;49.036;9.344;2023-11-19T11:04:14;14.00;99.90
46364;DHT22;32071;49.036;9.344;2023-11-19T11:06:43;14.00;99.90
46364;DHT22;32071;49.036;9.344;2023-11-19T11:09:09;14.20;99.90
46364;DHT22;32071;49.036;9.344;2023-11-19T11:11:39;14.30;99.90
46364;DHT22;32071;49.036;9.344;2023-11-19T11:14:05;14.40;99.90
46364;DHT22;32071;49.036;9.344;2023-11-19T11:16:32;14.40;99.90
46364;DHT22;32071;49.036;9.344;2023-11-19T11:18:58;14.30;99.90
46364;DHT22;32071;49.036;9.344;2023-11-19T11:21:26;14.40;99.90
46364;DHT22;32071;49.036;9.344;2023-11-19T11:24:15;14.40;99.90
46364;DHT22;32071;49.036;9.344;2023-11-19T11:32:33;14.50;99.90
46364;DHT22;32071;49.036;9.344;2023-11-19T11:35:35;14.60;99.90
46364;DHT22;32071;49.036;9.344;2023-11-19T11:38:08;14.70;99.90
46364;DHT22;32071;49.036;9.344;2023-11-19T11:40:34;14.70;99.90
46364;DHT22;32071;49.036;9.344;2023-11-19T11:43:00;14.70;99.90
46364;DHT22;32071;49.036;9.344;2023-11-19T11:45:41;14.90;99.90
46364;DHT22;32071;49.036;9.344;2023-11-19T11:48:15;15.10;99.90
46364;DHT22;32071;49.036;9.344;2023-11-19T11:50:53;15.30;99.90
46364;DHT22;32071;49.036;9.344;2023-11-19T11:53:23;15.40;99.90
46364;DHT22;32071;49.036;9.344;2023-11-19T11:58:26;15.40;99.90
46364;DHT22;32071;49.036;9.344;2023-11-19T12:00:52;15.60;99.90
46364;DHT22;32071;49.036;9.344;2023-11-19T12:03:20;15.70;99.90
46364;DHT22;32071;49.036;9.344;2023-11-19T12:05:48;15.80;99.90
46364;DHT22;32071;49.036;9.344;2023-11-19T12:08:14;15.70;99.90
46364;DHT22;32071;49.036;9.344;2023-11-19T12:10:51;15.60;99.90
46364;DHT22;32071;49.036;9.344;2023-11-19T12:13:18;15.50;99.90
46364;DHT22;32071;49.036;9.344;2023-11-19T12:18:27;15.50;99.90
46364;DHT22;32071;49.036;9.344;2023-11-19T12:20:53;15.40;99.90
46364;DHT22;32071;49.036;9.344;2023-11-19T12:23:18;15.50;99.90
46364;DHT22;32071;49.036;9.344;2023-11-19T12:25:44;15.50;99.90
46364;DHT22;32071;49.036;9.344;2023-11-19T12:28:15;15.50;99.90
46364;DHT22;32071;49.036;9.344;2023-11-19T12:30:45;15.40;99.90
46364;DHT22;32071;49.036;9.344;2023-11-19T12:33:11;15.30;99.90
46364;DHT22;32071;49.036;9.344;2023-11-19T12:35:47;15.30;99.90
46364;DHT22;32071;49.036;9.344;2023-11-19T12:38:19;15.30;99.90
46364;DHT22;32071;49.036;9.344;2023-11-19T12:40:46;15.30;99.90
46364;DHT22;32071;49.036;9.344;2023-11-19T12:43:21;15.30;99.90
46364;DHT22;32071;49.036;9.344;2023-11-19T12:45:47;15.30;99.90
46364;DHT22;32071;49.036;9.344;2023-11-19T12:48:13;15.20;99.90
46364;DHT22;32071;49.036;9.344;2023-11-19T12:53:20;14.90;99.90
46364;DHT22;32071;49.036;9.344;2023-11-19T12:55:46;14.90;99.90
46364;DHT22;32071;49.036;9.344;2023-11-19T12:58:31;14.90;99.90
46364;DHT22;32071;49.036;9.344;2023-11-19T13:01:05;15.00;99.90
46364;DHT22;32071;49.036;9.344;2023-11-19T13:03:35;15.00;99.90
46364;DHT22;32071;49.036;9.344;2023-11-19T13:06:05;15.00;99.90
46364;DHT22;32071;49.036;9.344;2023-11-19T13:08:40;15.10;99.90
46364;DHT22;32071;49.036;9.344;2023-11-19T13:11:07;15.00;99.90
46364;DHT22;32071;49.036;9.344;2023-11-19T13:16:17;15.20;99.90
46364;DHT22;32071;49.036;9.344;2023-11-19T13:18:44;15.30;99.90
46364;DHT22;32071;49.036;9.344;2023-11-19T13:21:10;15.30;99.90
46364;DHT22;32071;49.036;9.344;2023-11-19T13:23:35;15.20;99.90
46364;DHT22;32071;49.036;9.344;2023-11-19T13:26:01;15.20;99.90
46364;DHT22;32071;49.036;9.344;2023-11-19T13:28:26;15.10;99.90
46364;DHT22;32071;49.036;9.344;2023-11-19T13:30:53;15.10;99.90
46364;DHT22;32071;49.036;9.344;2023-11-19T13:33:18;15.10;99.90
46364;DHT22;32071;49.036;9.344;2023-11-19T13:35:44;14.90;99.90
46364;DHT22;32071;49.036;9.344;2023-11-19T13:38:10;14.90;99.90
46364;DHT22;32071;49.036;9.344;2023-11-19T13:40:35;15.00;99.90
46364;DHT22;32071;49.036;9.344;2023-11-19T13:43:01;15.00;99.90
46364;DHT22;32071;49.036;9.344;2023-11-19T13:45:26;15.00;99.90
46364;DHT22;32071;49.036;9.344;2023-11-19T13:47:52;15.10;99.90
46364;DHT22;32071;49.036;9.344;2023-11-19T13:50:17;15.00;99.90
46364;DHT22;32071;49.036;9.344;2023-11-19T13:52:44;15.00;99.90
46364;DHT22;32071;49.036;9.344;2023-11-19T13:55:13;15.00;99.90
46364;DHT22;32071;49.036;9.344;2023-11-19T13:57:40;15.00;99.90
46364;DHT22;32071;49.036;9.344;2023-11-19T14:00:10;15.00;99.90
46364;DHT22;32071;49.036;9.344;2023-11-19T14:02:42;14.90;99.90
46364;DHT22;32071;49.036;9.344;2023-11-19T14:05:09;14.90;99.90
46364;DHT22;32071;49.036;9.344;2023-11-19T14:07:34;14.90;99.90
46364;DHT22;32071;49.036;9.344;2023-11-19T14:10:00;14.80;99.90
46364;DHT22;32071;49.036;9.344;2023-11-19T14:12:26;14.80;99.90
46364;DHT22;32071;49.036;9.344;2023-11-19T14:14:51;14.80;99.90
46364;DHT22;32071;49.036;9.344;2023-11-19T14:17:17;14.80;99.90
46364;DHT22;32071;49.036;9.344;2023-11-19T14:19:44;14.70;99.90
46364;DHT22;32071;49.036;9.344;2023-11-19T14:22:10;14.60;99.90
46364;DHT22;32071;49.036;9.344;2023-11-19T14:24:36;14.60;99.90
46364;DHT22;32071;49.036;9.344;2023-11-19T14:27:02;14.60;99.90
46364;DHT22;32071;49.036;9.344;2023-11-19T14:29:28;14.60;99.90
46364;DHT22;32071;49.036;9.344;2023-11-19T14:31:55;14.60;99.90
46364;DHT22;32071;49.036;9.344;2023-11-19T14:34:21;14.60;99.90
46364;DHT22;32071;49.036;9.344;2023-11-19T14:36:46;14.50;99.90
46364;DHT22;32071;49.036;9.344;2023-11-19T14:39:12;14.50;99.90
46364;DHT22;32071;49.036;9.344;2023-11-19T14:41:38;14.50;99.90
46364;DHT22;32071;49.036;9.344;2023-11-19T14:44:04;14.40;99.90
46364;DHT22;32071;49.036;9.344;2023-11-19T14:46:30;14.40;99.90
46364;DHT22;32071;49.036;9.344;2023-11-19T14:48:56;14.40;99.90
46364;DHT22;32071;49.036;9.344;2023-11-19T14:51:22;14.40;99.90
46364;DHT22;32071;49.036;9.344;2023-11-19T14:53:47;14.30;99.90
46364;DHT22;32071;49.036;9.344;2023-11-19T14:56:13;14.20;99.90
46364;DHT22;32071;49.036;9.344;2023-11-19T14:58:39;14.10;99.90
46364;DHT22;32071;49.036;9.344;2023-11-19T15:01:05;14.00;99.90
46364;DHT22;32071;49.036;9.344;2023-11-19T15:03:32;14.00;99.90
46364;DHT22;32071;49.036;9.344;2023-11-19T15:05:58;14.00;99.90
46364;DHT22;32071;49.036;9.344;2023-11-19T15:08:24;14.00;99.90
46364;DHT22;32071;49.036;9.344;2023-11-19T15:10:49;13.90;99.90
46364;DHT22;32071;49.036;9.344;2023-11-19T15:13:15;14.00;99.90
46364;DHT22;32071;49.036;9.344;2023-11-19T15:15:41;14.00;99.90
46364;DHT22;32071;49.036;9.344;2023-11-19T15:18:07;14.00;99.90
46364;DHT22;32071;49.036;9.344;2023-11-19T15:20:32;14.00;99.90
46364;DHT22;32071;49.036;9.344;2023-11-19T15:22:58;13.90;99.90
46364;DHT22;32071;49.036;9.344;2023-11-19T15:25:24;13.90;99.90
46364;DHT22;32071;49.036;9.344;2023-11-19T15:27:50;13.80;99.90
46364;DHT22;32071;49.036;9.344;2023-11-19T15:30:15;13.80;99.90
46364;DHT22;32071;49.036;9.344;2023-11-19T15:32:44;13.90;99.90
46364;DHT22;32071;49.036;9.344;2023-11-19T15:35:10;13.80;99.90
46364;DHT22;32071;49.036;9.344;2023-11-19T15:37:36;13.70;99.90
46364;DHT22;32071;49.036;9.344;2023-11-19T15:40:03;13.60;99.90
46364;DHT22;32071;49.036;9.344;2023-11-19T15:42:31;13.50;99.90
46364;DHT22;32071;49.036;9.344;2023-11-19T15:44:57;13.40;99.90
46364;DHT22;32071;49.036;9.344;2023-11-19T15:47:22;13.30;99.90
46364;DHT22;32071;49.036;9.344;2023-11-19T15:49:48;13.30;99.90
46364;DHT22;32071;49.036;9.344;2023-11-19T15:52:15;13.20;99.90